createdAt,value
2019-03-22T00:00:23.669Z,73.27
2019-03-22T00:02:50.144Z,76.93
2019-03-22T00:05:16.743Z,70.33
2019-03-22T00:07:49.141Z,71.03
2019-03-22T00:10:18.485Z,62.60
2019-03-22T00:12:45.346Z,67.70
2019-03-22T00:15:11.697Z,62.57
2019-03-22T00:17:38.163Z,63.67
2019-03-22T00:20:07.793Z,61.77
2019-03-22T00:22:34.147Z,68.90
2019-03-22T00:25:00.535Z,64.67
2019-03-22T00:27:26.855Z,66.80
2019-03-22T00:29:55.228Z,67.80
2019-03-22T00:32:21.574Z,66.33
2019-03-22T00:34:47.992Z,64.57
2019-03-22T00:37:14.417Z,63.73
2019-03-22T00:39:40.781Z,67.33
2019-03-22T00:42:07.081Z,73.27
2019-03-22T00:44:33.458Z,76.77
2019-03-22T00:46:59.825Z,63.80
2019-03-22T00:49:26.369Z,60.83
2019-03-22T00:51:58.933Z,64.07
2019-03-22T00:54:25.519Z,66.33
2019-03-22T00:56:51.832Z,61.20
2019-03-22T00:59:19.281Z,61.93
2019-03-22T01:01:45.681Z,63.53
2019-03-22T01:04:12.167Z,76.90
2019-03-22T01:06:38.797Z,69.40
2019-03-22T01:09:10.581Z,62.83
2019-03-22T01:14:03.386Z,57.80
2019-03-22T01:16:29.767Z,65.77
2019-03-22T01:18:59.331Z,87.63
2019-03-22T01:21:25.683Z,66.83
2019-03-22T01:23:55.281Z,61.80
2019-03-22T01:26:22.669Z,63.23
2019-03-22T01:28:48.954Z,61.50
2019-03-22T01:31:15.288Z,61.77
2019-03-22T01:33:41.572Z,65.67
2019-03-22T01:36:07.920Z,64.93
2019-03-22T01:38:34.239Z,58.90
2019-03-22T01:41:02.041Z,57.93
2019-03-22T01:43:28.374Z,66.80
2019-03-22T01:45:57.736Z,58.17
2019-03-22T01:48:24.016Z,61.10
2019-03-22T01:50:53.537Z,57.57
2019-03-22T01:53:19.967Z,54.23
2019-03-22T01:55:46.258Z,165.03
2019-03-22T01:58:12.745Z,125.93
2019-03-22T02:00:39.077Z,102.30
2019-03-22T02:03:05.753Z,75.90
2019-03-22T02:05:32.683Z,68.20
2019-03-22T02:07:59.461Z,92.43
2019-03-22T02:10:29.917Z,75.90
2019-03-22T02:13:05.648Z,79.60
2019-03-22T02:15:40.482Z,85.00
2019-03-22T02:18:07.083Z,97.73
2019-03-22T02:20:34.159Z,81.27
2019-03-22T02:23:00.810Z,85.30
2019-03-22T02:25:27.335Z,101.67
2019-03-22T02:28:03.792Z,82.27
2019-03-22T02:30:22.186Z,88.93
2019-03-22T02:32:48.533Z,75.00
2019-03-22T02:35:28.842Z,79.43
2019-03-22T02:37:51.423Z,101.97
2019-03-22T02:40:23.859Z,95.73
2019-03-22T02:42:50.150Z,74.03
2019-03-22T02:45:16.458Z,74.60
2019-03-22T02:47:55.529Z,79.03
2019-03-22T02:50:21.975Z,83.70
2019-03-22T02:52:48.342Z,85.37
2019-03-22T02:55:15.065Z,61.00
2019-03-22T02:57:56.202Z,69.50
2019-03-22T03:00:19.755Z,100.10
2019-03-22T03:02:47.225Z,118.83
2019-03-22T03:05:22.398Z,115.47
2019-03-22T03:07:52.104Z,96.17
2019-03-22T03:10:36.759Z,64.13
2019-03-22T03:13:04.420Z,74.43
2019-03-22T03:15:31.073Z,85.17
2019-03-22T03:18:01.556Z,96.33
2019-03-22T03:20:29.016Z,99.97
2019-03-22T03:22:56.228Z,96.30
2019-03-22T03:25:22.762Z,63.47
2019-03-22T03:27:53.536Z,91.27
2019-03-22T03:30:22.208Z,83.80
2019-03-22T03:32:49.730Z,78.53
2019-03-22T03:35:22.533Z,89.07
2019-03-22T03:37:49.073Z,76.70
2019-03-22T03:40:35.565Z,73.33
2019-03-22T03:43:04.542Z,87.47
2019-03-22T03:45:32.381Z,76.23
2019-03-22T03:50:54.742Z,79.47
2019-03-22T03:53:21.036Z,82.50
2019-03-22T03:55:47.652Z,87.93
2019-03-22T03:58:14.584Z,100.93
2019-03-22T04:00:43.507Z,107.70
2019-03-22T04:03:10.458Z,86.63
2019-03-22T04:05:37.024Z,86.90
2019-03-22T04:08:06.145Z,108.10
2019-03-22T04:10:32.748Z,87.77
2019-03-22T04:12:59.471Z,93.03
2019-03-22T04:15:25.907Z,94.40
2019-03-22T04:17:52.380Z,90.37
2019-03-22T04:20:18.817Z,95.33
2019-03-22T04:22:45.470Z,92.63
2019-03-22T04:25:11.900Z,85.17
2019-03-22T04:27:44.067Z,76.57
2019-03-22T04:30:21.838Z,80.20
2019-03-22T04:32:54.252Z,86.53
2019-03-22T04:35:23.720Z,63.57
2019-03-22T04:37:50.153Z,74.20
2019-03-22T04:40:21.802Z,72.33
2019-03-22T04:42:48.501Z,81.57
2019-03-22T04:45:18.329Z,75.37
2019-03-22T04:47:46.137Z,75.43
2019-03-22T04:50:15.609Z,62.93
2019-03-22T04:52:44.321Z,86.27
2019-03-22T04:55:13.155Z,89.87
2019-03-22T04:57:39.593Z,62.83
2019-03-22T05:00:10.374Z,61.90
2019-03-22T05:02:37.375Z,80.87
2019-03-22T05:05:05.145Z,70.37
2019-03-22T05:07:31.532Z,77.97
2019-03-22T05:09:57.989Z,75.60
2019-03-22T05:12:24.993Z,71.27
2019-03-22T05:14:51.735Z,66.87
2019-03-22T05:17:18.526Z,74.73
2019-03-22T05:19:48.406Z,66.67
2019-03-22T05:22:14.850Z,68.87
2019-03-22T05:24:42.657Z,86.20
2019-03-22T05:27:09.162Z,64.27
2019-03-22T05:29:35.592Z,72.50
2019-03-22T05:32:06.983Z,81.47
2019-03-22T05:34:35.229Z,78.80
2019-03-22T05:37:01.702Z,79.03
2019-03-22T05:39:28.846Z,72.87
2019-03-22T05:41:56.424Z,63.77
2019-03-22T05:44:25.041Z,56.37
2019-03-22T05:47:03.835Z,67.97
2019-03-22T05:49:33.720Z,71.77
2019-03-22T05:52:00.232Z,64.87
2019-03-22T05:54:36.645Z,67.93
2019-03-22T05:57:13.278Z,92.53
2019-03-22T06:03:04.021Z,67.17
2019-03-22T06:05:38.653Z,70.07
2019-03-22T06:08:57.828Z,63.83
2019-03-22T06:11:27.258Z,65.30
2019-03-22T06:13:55.699Z,96.73
2019-03-22T06:16:23.396Z,76.27
2019-03-22T06:19:26.020Z,67.33
2019-03-22T06:22:32.891Z,79.97
2019-03-22T06:25:39.669Z,84.40
2019-03-22T06:29:08.139Z,87.57
2019-03-22T06:31:34.447Z,78.50
2019-03-22T06:34:13.243Z,86.37
2019-03-22T06:40:17.216Z,77.50
2019-03-22T06:43:24.550Z,79.97
2019-03-22T06:46:12.812Z,77.33
2019-03-22T06:48:44.771Z,93.50
2019-03-22T06:54:31.740Z,75.77
2019-03-22T06:57:20.616Z,88.60
2019-03-22T07:00:05.957Z,74.17
2019-03-22T07:02:35.141Z,70.43
2019-03-22T07:05:05.153Z,54.80
2019-03-22T07:08:14.285Z,71.17
2019-03-22T07:10:43.372Z,83.13
2019-03-22T07:23:05.093Z,61.23
2019-03-22T07:32:43.076Z,63.63
2019-03-22T07:35:13.466Z,62.43
2019-03-22T07:37:39.950Z,54.13
2019-03-22T07:40:18.840Z,50.23
2019-03-22T07:42:48.987Z,51.83
2019-03-22T07:45:15.785Z,52.93
2019-03-22T07:47:55.974Z,48.80
2019-03-22T07:50:22.459Z,40.67
2019-03-22T07:52:51.748Z,47.67
2019-03-22T07:55:21.112Z,45.03
2019-03-22T07:57:53.552Z,51.80
2019-03-22T08:00:44.964Z,41.30
2019-03-22T08:03:17.397Z,45.67
2019-03-22T08:05:51.018Z,54.20
2019-03-22T08:11:40.050Z,50.03
2019-03-22T08:14:06.475Z,45.43
2019-03-22T08:16:32.769Z,48.47
2019-03-22T08:18:59.147Z,49.97
2019-03-22T08:21:28.452Z,47.53
2019-03-22T08:23:54.721Z,47.03
2019-03-22T08:26:21.246Z,43.47
2019-03-22T08:28:47.600Z,44.50
2019-03-22T08:31:13.886Z,44.87
2019-03-22T08:33:40.189Z,45.20
2019-03-22T08:36:06.490Z,41.63
2019-03-22T08:38:32.753Z,45.77
2019-03-22T08:41:01.093Z,43.47
2019-03-22T08:43:27.459Z,45.33
2019-03-22T08:45:53.775Z,44.03
2019-03-22T08:48:20.106Z,42.27
2019-03-22T08:50:46.465Z,44.20
2019-03-22T08:53:12.720Z,44.23
2019-03-22T08:56:00.077Z,42.93
2019-03-22T08:58:26.515Z,41.73
2019-03-22T09:00:57.906Z,42.27
2019-03-22T09:03:21.052Z,39.20
2019-03-22T09:05:47.380Z,38.15
2019-03-22T09:08:16.016Z,40.58
2019-03-22T09:10:41.751Z,40.55
2019-03-22T09:13:08.170Z,40.00
2019-03-22T09:15:41.104Z,41.83
2019-03-22T09:18:02.698Z,40.45
2019-03-22T09:20:28.981Z,40.73
2019-03-22T09:22:55.348Z,39.08
2019-03-22T09:25:23.866Z,41.58
2019-03-22T09:27:51.326Z,41.10
2019-03-22T09:30:18.461Z,40.88
2019-03-22T09:32:50.832Z,39.37
2019-03-22T09:35:23.297Z,38.98
2019-03-22T09:37:52.620Z,38.55
2019-03-22T09:40:21.719Z,40.58
2019-03-22T09:42:55.031Z,40.23
2019-03-22T09:45:21.593Z,39.67
2019-03-22T09:47:47.848Z,37.90
2019-03-22T09:50:23.493Z,37.80
2019-03-22T09:52:57.447Z,39.67
2019-03-22T09:55:31.259Z,40.67
2019-03-22T09:58:00.654Z,40.03
2019-03-22T10:00:28.737Z,36.03
2019-03-22T10:02:55.232Z,38.63
2019-03-22T10:05:21.556Z,37.42
2019-03-22T10:08:00.514Z,37.35
2019-03-22T10:10:27.100Z,36.55
2019-03-22T10:12:53.473Z,36.25
2019-03-22T10:15:19.794Z,36.13
2019-03-22T10:17:51.689Z,32.67
2019-03-22T10:20:18.149Z,35.58
2019-03-22T10:22:50.524Z,35.25
2019-03-22T10:25:19.116Z,34.23
2019-03-22T10:27:51.620Z,34.85
2019-03-22T10:30:17.963Z,35.50
2019-03-22T10:32:44.296Z,32.10
2019-03-22T10:35:25.328Z,30.23
2019-03-22T10:37:42.549Z,29.15
2019-03-22T10:40:08.856Z,27.75
2019-03-22T10:42:35.212Z,28.15
2019-03-22T10:45:02.860Z,27.77
2019-03-22T10:47:29.283Z,28.17
2019-03-22T10:49:55.574Z,24.10
2019-03-22T10:52:24.926Z,24.02
2019-03-22T10:54:51.253Z,25.57
2019-03-22T10:57:17.624Z,25.35
2019-03-22T10:59:49.998Z,22.25
2019-03-22T11:02:16.293Z,21.23
2019-03-22T11:04:45.739Z,18.80
2019-03-22T11:07:12.049Z,18.75
2019-03-22T11:09:41.472Z,19.32
2019-03-22T11:12:12.388Z,18.00
2019-03-22T11:14:45.854Z,17.57
2019-03-22T11:17:18.083Z,17.02
2019-03-22T11:19:57.561Z,17.82
2019-03-22T11:22:24.152Z,17.00
2019-03-22T11:24:50.612Z,17.05
2019-03-22T11:27:38.957Z,16.62
2019-03-22T11:30:13.363Z,15.83
2019-03-22T11:32:39.800Z,16.05
2019-03-22T11:35:09.764Z,15.18
2019-03-22T11:37:36.140Z,16.37
2019-03-22T11:40:07.181Z,14.73
2019-03-22T11:42:33.665Z,15.80
2019-03-22T11:45:01.033Z,13.98
2019-03-22T11:47:36.747Z,14.30
2019-03-22T11:50:07.715Z,12.65
2019-03-22T11:52:40.817Z,13.53
2019-03-22T11:55:12.122Z,13.48
2019-03-22T11:57:38.410Z,13.80
2019-03-22T12:00:14.395Z,13.00
2019-03-22T12:02:40.695Z,12.73
2019-03-22T12:05:07.106Z,12.73
2019-03-22T12:07:45.620Z,12.53
2019-03-22T12:10:20.156Z,10.20
2019-03-22T12:13:01.857Z,9.68
2019-03-22T12:15:28.219Z,9.73
2019-03-22T12:18:00.308Z,10.30
2019-03-22T12:20:29.697Z,10.20
2019-03-22T12:22:59.141Z,9.73
2019-03-22T12:25:25.444Z,11.50
2019-03-22T12:27:54.955Z,12.00
2019-03-22T12:30:24.455Z,11.95
2019-03-22T12:32:56.887Z,11.80
2019-03-22T12:35:26.260Z,11.68
2019-03-22T12:37:57.707Z,11.63
2019-03-22T12:40:23.944Z,11.55
2019-03-22T12:42:50.400Z,11.65
2019-03-22T12:45:48.774Z,10.40
2019-03-22T12:48:25.594Z,11.40
2019-03-22T12:50:52.058Z,10.55
2019-03-22T12:53:21.368Z,11.80
2019-03-22T12:55:48.796Z,10.10
2019-03-22T12:58:16.286Z,8.48
2019-03-22T13:00:42.560Z,9.30
2019-03-22T13:03:11.982Z,9.75
2019-03-22T13:09:17.566Z,9.68
2019-03-22T13:11:52.535Z,9.25
2019-03-22T13:14:22.805Z,9.45
2019-03-22T13:17:04.133Z,9.85
2019-03-22T13:19:33.556Z,11.68
2019-03-22T13:22:03.319Z,10.55
2019-03-22T13:24:31.019Z,11.18
2019-03-22T13:26:57.367Z,10.70
2019-03-22T13:29:41.267Z,12.30
2019-03-22T13:32:11.399Z,11.73
2019-03-22T13:34:46.546Z,11.93
2019-03-22T13:37:27.084Z,12.13
2019-03-22T13:39:56.519Z,12.07
2019-03-22T13:42:22.839Z,12.28
2019-03-22T13:44:52.263Z,12.18
2019-03-22T13:47:18.592Z,12.65
2019-03-22T13:49:53.509Z,11.78
2019-03-22T13:52:24.769Z,12.30
2019-03-22T13:54:57.442Z,10.88
2019-03-22T13:57:23.972Z,11.70
2019-03-22T13:59:52.800Z,10.95
2019-03-22T14:02:23.052Z,11.22
2019-03-22T14:04:49.544Z,11.70
2019-03-22T14:07:15.889Z,9.53
2019-03-22T14:09:42.525Z,10.15
2019-03-22T14:12:08.984Z,10.13
2019-03-22T14:14:35.545Z,11.28
2019-03-22T14:17:08.310Z,11.15
2019-03-22T14:19:57.755Z,11.10
2019-03-22T14:22:28.612Z,10.45
2019-03-22T14:25:15.196Z,10.53
2019-03-22T14:27:47.324Z,7.47
2019-03-22T14:30:24.433Z,10.88
2019-03-22T14:32:57.635Z,10.32
2019-03-22T14:35:28.576Z,9.15
2019-03-22T14:38:05.165Z,10.18
2019-03-22T14:40:31.930Z,9.65
2019-03-22T14:43:03.762Z,10.53
2019-03-22T14:45:50.643Z,10.00
2019-03-22T14:48:26.012Z,10.55
2019-03-22T14:51:11.258Z,9.83
2019-03-22T14:53:52.283Z,10.95
2019-03-22T14:56:20.848Z,10.82
2019-03-22T14:58:49.759Z,10.03
2019-03-22T15:04:26.892Z,10.77
2019-03-22T15:06:54.339Z,11.50
2019-03-22T15:09:30.146Z,11.73
2019-03-22T15:11:56.436Z,11.15
2019-03-22T15:14:38.261Z,11.35
2019-03-22T15:17:29.049Z,12.07
2019-03-22T15:20:23.017Z,12.35
2019-03-22T15:23:25.047Z,12.10
2019-03-22T15:26:18.662Z,11.70
2019-03-22T15:29:09.335Z,12.80
2019-03-22T15:31:55.474Z,12.80
2019-03-22T15:34:43.460Z,12.00
2019-03-22T15:37:20.795Z,11.65
2019-03-22T15:40:04.201Z,11.75
2019-03-22T15:42:32.526Z,11.10
2019-03-22T15:44:58.909Z,12.37
2019-03-22T15:47:31.124Z,11.20
2019-03-22T15:50:00.822Z,11.18
2019-03-22T15:52:30.231Z,10.48
2019-03-22T15:54:59.619Z,11.43
2019-03-22T15:57:25.940Z,11.90
2019-03-22T15:59:52.321Z,11.53
2019-03-22T16:02:21.729Z,11.28
2019-03-22T16:04:50.089Z,11.55
2019-03-22T16:07:16.480Z,10.72
2019-03-22T16:09:48.872Z,11.93
2019-03-22T16:12:28.425Z,11.57
2019-03-22T16:15:00.702Z,11.00
2019-03-22T16:17:43.832Z,10.08
2019-03-22T16:20:41.061Z,8.33
2019-03-22T16:23:07.504Z,8.30
2019-03-22T16:25:34.361Z,7.45
2019-03-22T16:28:06.638Z,8.28
2019-03-22T16:30:41.625Z,7.55
2019-03-22T16:33:23.073Z,7.45
2019-03-22T16:38:15.883Z,7.55
2019-03-22T16:40:49.280Z,7.83
2019-03-22T16:43:15.749Z,6.75
2019-03-22T16:45:48.384Z,7.67
2019-03-22T16:48:17.777Z,7.55
2019-03-22T16:50:44.502Z,7.17
2019-03-22T16:53:10.841Z,8.35
2019-03-22T16:55:37.765Z,7.25
2019-03-22T16:58:10.100Z,7.75
2019-03-22T17:00:45.524Z,7.50
2019-03-22T17:03:17.950Z,7.45
2019-03-22T17:05:56.891Z,6.95
2019-03-22T17:08:29.037Z,7.75
2019-03-22T17:10:58.368Z,9.70
2019-03-22T17:13:24.732Z,13.05
2019-03-22T17:15:57.021Z,14.83
2019-03-22T17:18:26.384Z,18.67
2019-03-22T17:20:55.786Z,14.18
2019-03-22T17:23:22.081Z,14.60
2019-03-22T17:25:48.509Z,14.13
2019-03-22T17:28:18.184Z,14.07
2019-03-22T17:30:58.761Z,18.02
2019-03-22T17:33:25.046Z,18.63
2019-03-22T17:35:54.475Z,18.80
2019-03-22T17:38:26.917Z,18.82
2019-03-22T17:40:59.565Z,21.23
2019-03-22T17:43:25.990Z,22.27
2019-03-22T17:45:57.150Z,21.42
2019-03-22T17:48:26.660Z,22.95
2019-03-22T17:51:30.244Z,21.80
2019-03-22T17:54:02.485Z,22.70
2019-03-22T17:56:29.965Z,22.73
2019-03-22T17:58:56.230Z,23.60
2019-03-22T18:01:24.292Z,23.00
2019-03-22T18:03:51.824Z,22.65
2019-03-22T18:06:38.329Z,22.35
2019-03-22T18:09:08.163Z,23.18
2019-03-22T18:11:45.039Z,23.22
2019-03-22T18:14:23.539Z,22.77
2019-03-22T18:16:55.163Z,22.22
2019-03-22T18:19:30.733Z,22.13
2019-03-22T18:21:57.058Z,22.25
2019-03-22T18:24:32.713Z,21.90
2019-03-22T18:27:11.357Z,21.73
2019-03-22T18:29:40.717Z,21.97
2019-03-22T18:32:07.080Z,21.40
2019-03-22T18:35:00.508Z,21.15
2019-03-22T18:40:32.623Z,21.95
2019-03-22T18:42:58.980Z,21.90
2019-03-22T18:45:31.400Z,21.33
2019-03-22T18:48:03.585Z,22.73
2019-03-22T18:50:30.054Z,23.57
2019-03-22T18:53:02.249Z,24.07
2019-03-22T18:55:33.312Z,24.40
2019-03-22T18:58:04.150Z,25.08
2019-03-22T19:00:33.505Z,28.15
2019-03-22T19:02:59.777Z,28.57
2019-03-22T19:05:26.076Z,26.77
2019-03-22T19:08:12.921Z,30.68
2019-03-22T19:10:41.217Z,35.25
2019-03-22T19:13:13.409Z,38.90
2019-03-22T19:15:40.744Z,40.05
2019-03-22T19:18:08.695Z,44.08
2019-03-22T19:21:03.188Z,44.65
2019-03-22T19:23:37.832Z,44.90
2019-03-22T19:26:04.138Z,46.85
2019-03-22T19:28:33.449Z,47.48
2019-03-22T19:31:18.252Z,48.58
2019-03-22T19:33:47.652Z,48.00
2019-03-22T19:36:29.408Z,48.75
2019-03-22T19:38:58.809Z,49.23
2019-03-22T19:41:28.217Z,51.77
2019-03-22T19:44:00.549Z,52.67
2019-03-22T19:46:30.039Z,52.00
2019-03-22T19:49:18.442Z,52.65
2019-03-22T19:51:44.969Z,52.45
2019-03-22T19:54:14.442Z,54.83
2019-03-22T19:56:41.899Z,56.10
2019-03-22T19:59:09.296Z,54.50
2019-03-22T20:01:41.419Z,57.50
2019-03-22T20:04:14.111Z,58.78
2019-03-22T20:06:40.399Z,57.98
2019-03-22T20:09:09.795Z,58.55
2019-03-22T20:11:39.235Z,61.48
2019-03-22T20:14:35.303Z,60.70
2019-03-22T20:17:11.037Z,60.25
2019-03-22T20:19:43.493Z,59.23
2019-03-22T20:22:10.219Z,58.70
2019-03-22T20:24:51.791Z,61.05
2019-03-22T20:27:26.458Z,61.08
2019-03-22T20:29:52.728Z,64.37
2019-03-22T20:32:19.011Z,63.25
2019-03-22T20:34:54.649Z,63.55
2019-03-22T20:37:30.016Z,64.65
2019-03-22T20:40:11.114Z,65.52
2019-03-22T20:42:41.460Z,64.17
2019-03-22T20:45:10.986Z,72.32
2019-03-22T20:47:45.013Z,71.90
2019-03-22T20:50:19.711Z,73.47
2019-03-22T20:52:46.057Z,79.92
2019-03-22T20:55:18.173Z,89.90
2019-03-22T20:57:44.652Z,85.75
2019-03-22T21:00:35.489Z,78.00
2019-03-22T21:03:02.770Z,82.67
2019-03-22T21:05:29.154Z,82.40
2019-03-22T21:07:55.449Z,78.83
2019-03-22T21:10:39.039Z,80.77
2019-03-22T21:13:11.310Z,80.20
2019-03-22T21:15:40.713Z,83.37
2019-03-22T21:18:07.021Z,88.22
2019-03-22T21:20:36.503Z,79.53
2019-03-22T21:23:14.964Z,84.42
2019-03-22T21:25:44.371Z,86.37
2019-03-22T21:28:10.683Z,87.30
2019-03-22T21:31:01.718Z,85.93
2019-03-22T21:33:28.173Z,87.08
2019-03-22T21:35:54.437Z,85.83
2019-03-22T21:38:23.743Z,88.22
2019-03-22T21:40:50.017Z,87.67
2019-03-22T21:43:16.295Z,91.33
2019-03-22T21:45:42.645Z,83.47
2019-03-22T21:48:08.949Z,80.80
2019-03-22T21:50:35.238Z,83.87
2019-03-22T21:53:01.792Z,85.90
2019-03-22T21:55:34.101Z,86.57
2019-03-22T21:58:00.419Z,88.93
2019-03-22T22:00:26.716Z,90.03
2019-03-22T22:02:56.701Z,90.17
2019-03-22T22:05:22.970Z,89.17
2019-03-22T22:07:52.386Z,86.50
2019-03-22T22:10:18.693Z,89.07
2019-03-22T22:12:48.293Z,86.90
2019-03-22T22:15:14.621Z,85.93
2019-03-22T22:17:42.050Z,84.47
2019-03-22T22:20:11.451Z,82.87
2019-03-22T22:22:40.909Z,82.40
2019-03-22T22:25:11.079Z,79.77
2019-03-22T22:27:46.440Z,78.23
2019-03-22T22:30:15.920Z,76.77
2019-03-22T22:32:50.383Z,76.70
2019-03-22T22:35:19.844Z,79.73
2019-03-22T22:38:08.142Z,77.13
2019-03-22T22:41:03.371Z,76.02
2019-03-22T22:43:47.097Z,79.07
2019-03-22T22:46:15.375Z,78.97
2019-03-22T22:48:41.544Z,80.03
2019-03-22T22:51:43.633Z,82.23
2019-03-22T22:54:27.376Z,83.52
2019-03-22T22:56:56.843Z,83.77
2019-03-22T22:59:28.497Z,84.83
2019-03-22T23:01:54.887Z,86.02
2019-03-22T23:04:32.259Z,84.07
2019-03-22T23:07:01.835Z,88.13
2019-03-22T23:09:43.595Z,87.27
2019-03-22T23:12:09.898Z,87.33
2019-03-22T23:14:42.186Z,90.23
2019-03-22T23:17:11.607Z,90.30
2019-03-22T23:19:41.047Z,86.57
2019-03-22T23:22:21.720Z,87.97
2019-03-22T23:24:58.264Z,90.13
2019-03-22T23:27:27.699Z,92.43
2019-03-22T23:29:54.056Z,92.43
2019-03-22T23:33:00.479Z,91.27
2019-03-22T23:35:28.943Z,90.27
2019-03-22T23:38:07.134Z,90.73
2019-03-22T23:40:36.557Z,92.87
2019-03-22T23:43:03.924Z,91.53
2019-03-22T23:45:33.329Z,94.67
2019-03-22T23:48:05.747Z,95.00
2019-03-22T23:50:33.069Z,95.15
2019-03-22T23:53:05.725Z,95.55
2019-03-22T23:55:35.252Z,96.57
2019-03-22T23:58:04.629Z,95.53
